createdAt,value
2022-12-28T00:01:15.897Z,101431.19
2022-12-28T00:03:43.066Z,101422.91
2022-12-28T00:06:10.279Z,101425.56
2022-12-28T00:08:36.935Z,101405.19
2022-12-28T00:11:20.286Z,101416.63
2022-12-28T00:13:54.815Z,101410.16
2022-12-28T00:16:27.269Z,101416.31
2022-12-28T00:18:55.083Z,101414.53
2022-12-28T00:21:21.952Z,101413.47
2022-12-28T00:23:50.780Z,101408.03
2022-12-28T00:26:17.434Z,101398.94
2022-12-28T00:28:43.778Z,101404.16
2022-12-28T00:31:10.409Z,101404.72
2022-12-28T00:33:36.805Z,101408.28
2022-12-28T00:36:04.131Z,101416.97
2022-12-28T00:38:35.575Z,101417.84
2022-12-28T00:41:01.920Z,101410.84
2022-12-28T00:43:28.293Z,101404.91
2022-12-28T00:45:54.677Z,101398.88
2022-12-28T00:48:21.686Z,101389.09
2022-12-28T00:50:48.125Z,101376.00
2022-12-28T00:53:15.100Z,101359.72
2022-12-28T00:55:41.646Z,101354.44
2022-12-28T00:58:08.775Z,101346.81
2022-12-28T01:00:36.834Z,101339.19
2022-12-28T01:03:04.864Z,101337.03
2022-12-28T01:05:31.334Z,101338.69
2022-12-28T01:07:57.676Z,101331.22
2022-12-28T01:10:24.101Z,101331.81
2022-12-28T01:12:50.436Z,101329.34
2022-12-28T01:15:16.916Z,101310.78
2022-12-28T01:17:43.265Z,101310.75
2022-12-28T01:20:10.285Z,101310.41
2022-12-28T01:22:36.655Z,101311.28
2022-12-28T01:25:03.451Z,101310.66
2022-12-28T01:27:29.922Z,101298.25
2022-12-28T01:29:56.249Z,101293.13
2022-12-28T01:32:22.607Z,101292.56
2022-12-28T01:34:48.932Z,101284.56
2022-12-28T01:37:15.270Z,101271.31
2022-12-28T01:39:41.606Z,101268.63
2022-12-28T01:42:16.384Z,101277.50
2022-12-28T01:44:48.335Z,101271.47
2022-12-28T01:47:28.296Z,101263.13
2022-12-28T01:50:04.812Z,101267.16
2022-12-28T01:52:55.804Z,101265.69
2022-12-28T01:55:26.440Z,101254.63
2022-12-28T01:58:01.491Z,101247.47
2022-12-28T02:00:28.431Z,101250.91
2022-12-28T02:02:59.212Z,101254.25
2022-12-28T02:05:30.024Z,101239.66
2022-12-28T02:08:10.632Z,101233.31
2022-12-28T02:10:42.726Z,101220.75
2022-12-28T02:13:14.132Z,101218.66
2022-12-28T02:15:40.575Z,101210.50
2022-12-28T02:18:06.968Z,101222.69
2022-12-28T02:20:59.284Z,101211.88
2022-12-28T02:23:53.675Z,101185.94
2022-12-28T02:26:53.563Z,101182.13
2022-12-28T02:29:38.118Z,101183.72
2022-12-28T02:32:23.063Z,101172.44
2022-12-28T02:35:06.659Z,101164.09
2022-12-28T02:37:40.404Z,101163.72
2022-12-28T02:40:15.448Z,101164.50
2022-12-28T02:42:43.651Z,101161.91
2022-12-28T02:45:51.988Z,101152.22
2022-12-28T02:48:37.319Z,101145.69
2022-12-28T02:51:26.032Z,101148.03
2022-12-28T02:54:07.373Z,101138.56
2022-12-28T02:56:49.169Z,101137.38
2022-12-28T02:59:18.976Z,101130.09
2022-12-28T03:01:56.244Z,101124.66
2022-12-28T03:04:47.581Z,101121.38
2022-12-28T03:07:40.905Z,101118.06
2022-12-28T03:10:19.210Z,101122.56
2022-12-28T03:13:01.354Z,101110.50
2022-12-28T03:15:37.667Z,101114.03
2022-12-28T03:18:33.876Z,101105.63
2022-12-28T03:21:22.990Z,101114.03
2022-12-28T03:24:10.982Z,101099.09
2022-12-28T03:27:09.565Z,101094.22
2022-12-28T03:30:13.779Z,101101.53
2022-12-28T03:32:40.383Z,101093.66
2022-12-28T03:35:07.565Z,101092.06
2022-12-28T03:37:50.049Z,101092.44
2022-12-28T03:40:28.302Z,101083.78
2022-12-28T03:43:19.276Z,101078.38
2022-12-28T03:45:47.463Z,101071.97
2022-12-28T03:48:17.283Z,101067.91
2022-12-28T03:50:48.060Z,101057.97
2022-12-28T03:53:19.314Z,101053.66
2022-12-28T03:55:45.826Z,101053.59
2022-12-28T03:58:14.593Z,101050.59
2022-12-28T04:00:41.351Z,101042.41
2022-12-28T04:03:07.836Z,101041.50
2022-12-28T04:05:34.877Z,101038.16
2022-12-28T04:08:01.298Z,101034.44
2022-12-28T04:10:28.005Z,101031.56
2022-12-28T04:12:56.540Z,101033.00
2022-12-28T04:15:30.732Z,101025.59
2022-12-28T04:18:00.932Z,101015.22
2022-12-28T04:20:27.391Z,101013.28
2022-12-28T04:22:53.878Z,101010.53
2022-12-28T04:25:20.372Z,101017.66
2022-12-28T04:27:47.349Z,101011.50
2022-12-28T04:30:33.637Z,101003.50
2022-12-28T04:33:00.034Z,101015.78
2022-12-28T04:35:27.015Z,101007.66
2022-12-28T04:37:54.099Z,101009.13
2022-12-28T04:40:20.440Z,101017.03
2022-12-28T04:42:46.778Z,101001.25
2022-12-28T04:45:16.955Z,101006.97
2022-12-28T04:47:48.032Z,100999.06
2022-12-28T04:50:14.371Z,100997.34
2022-12-28T04:52:40.723Z,101003.69
2022-12-28T04:55:07.425Z,100987.06
2022-12-28T04:57:53.728Z,100990.22
2022-12-28T05:00:20.173Z,100985.06
2022-12-28T05:02:46.664Z,100977.72
2022-12-28T05:05:13.154Z,100982.06
2022-12-28T05:07:39.523Z,100984.50
2022-12-28T05:10:06.173Z,100988.13
2022-12-28T05:12:32.526Z,100985.13
2022-12-28T05:14:58.925Z,100972.16
2022-12-28T05:17:25.248Z,100982.81
2022-12-28T05:19:51.591Z,100971.94
2022-12-28T05:22:17.969Z,100972.38
2022-12-28T05:24:44.348Z,100973.81
2022-12-28T05:27:10.693Z,100974.03
2022-12-28T05:29:37.015Z,100974.03
2022-12-28T05:32:03.746Z,100973.94
2022-12-28T05:34:30.055Z,100977.63
2022-12-28T05:36:56.425Z,100974.72
2022-12-28T05:39:22.772Z,100979.91
2022-12-28T05:41:49.112Z,100968.25
2022-12-28T05:44:15.461Z,100970.97
2022-12-28T05:46:41.953Z,100970.53
2022-12-28T05:49:09.505Z,100967.16
2022-12-28T05:51:36.175Z,100961.06
2022-12-28T05:54:06.130Z,100965.44
2022-12-28T05:56:32.880Z,100953.53
2022-12-28T05:59:04.668Z,100953.47
2022-12-28T06:01:38.871Z,100951.28
2022-12-28T06:04:13.416Z,100950.25
2022-12-28T06:06:39.785Z,100952.84
2022-12-28T06:09:06.254Z,100954.31
2022-12-28T06:11:32.631Z,100952.38
2022-12-28T06:13:59.630Z,100950.22
2022-12-28T06:16:28.827Z,100944.91
2022-12-28T06:18:55.395Z,100945.63
2022-12-28T06:21:28.375Z,100925.66
2022-12-28T06:23:59.115Z,100926.50
2022-12-28T06:26:27.133Z,100932.38
2022-12-28T06:28:53.586Z,100932.72
2022-12-28T06:31:23.113Z,100930.81
2022-12-28T06:33:53.627Z,100927.13
2022-12-28T06:36:25.329Z,100943.03
2022-12-28T06:38:53.724Z,100933.78
2022-12-28T06:41:21.623Z,100936.50
2022-12-28T06:43:48.898Z,100937.16
2022-12-28T06:46:17.117Z,100940.91
2022-12-28T06:48:44.160Z,100939.09
2022-12-28T06:51:14.470Z,100942.38
2022-12-28T06:53:41.854Z,100932.84
2022-12-28T06:56:12.135Z,100928.28
2022-12-28T06:58:38.782Z,100926.63
2022-12-28T07:01:12.001Z,100934.38
2022-12-28T07:03:38.783Z,100936.44
2022-12-28T07:06:06.187Z,100927.25
2022-12-28T07:08:33.284Z,100922.09
2022-12-28T07:11:08.415Z,100926.56
2022-12-28T07:13:35.339Z,100917.78
2022-12-28T07:16:07.047Z,100930.69
2022-12-28T07:18:34.019Z,100930.00
2022-12-28T07:21:06.735Z,100926.50
2022-12-28T07:23:34.066Z,100923.28
2022-12-28T07:26:06.545Z,100919.78
2022-12-28T07:28:33.606Z,100917.91
2022-12-28T07:31:06.486Z,100919.72
2022-12-28T07:33:34.147Z,100918.75
2022-12-28T07:36:00.504Z,100907.31
2022-12-28T07:38:26.984Z,100910.69
2022-12-28T07:40:53.326Z,100912.31
2022-12-28T07:43:19.663Z,100914.97
2022-12-28T07:45:46.049Z,100911.97
2022-12-28T07:48:12.387Z,100913.28
2022-12-28T07:50:38.793Z,100901.06
2022-12-28T07:53:05.331Z,100895.47
2022-12-28T07:55:31.982Z,100903.53
2022-12-28T07:57:58.365Z,100906.91
2022-12-28T08:00:24.821Z,100909.16
2022-12-28T08:02:54.629Z,100911.63
2022-12-28T08:05:20.968Z,100903.63
2022-12-28T08:07:47.311Z,100907.94
2022-12-28T08:10:13.681Z,100900.72
2022-12-28T08:12:40.047Z,100898.75
2022-12-28T08:15:06.951Z,100908.25
2022-12-28T08:17:33.302Z,100909.41
2022-12-28T08:19:59.819Z,100907.41
2022-12-28T08:22:26.147Z,100911.81
2022-12-28T08:24:52.617Z,100911.44
2022-12-28T08:27:18.984Z,100913.94
2022-12-28T08:29:45.379Z,100907.06
2022-12-28T08:32:11.719Z,100907.75
2022-12-28T08:34:38.063Z,100897.00
2022-12-28T08:37:04.422Z,100898.81
2022-12-28T08:39:30.827Z,100904.91
2022-12-28T08:41:57.194Z,100897.34
2022-12-28T08:44:23.555Z,100906.00
2022-12-28T08:46:50.134Z,100890.13
2022-12-28T08:49:16.607Z,100905.75
2022-12-28T08:51:43.004Z,100902.81
2022-12-28T08:54:11.052Z,100904.28
2022-12-28T08:56:39.489Z,100903.91
2022-12-28T08:59:06.661Z,100890.03
2022-12-28T09:01:42.594Z,100888.03
2022-12-28T09:04:13.373Z,100894.56
2022-12-28T09:06:40.031Z,100898.75
2022-12-28T09:09:08.613Z,100899.63
2022-12-28T09:11:36.848Z,100894.78
2022-12-28T09:14:05.276Z,100898.38
2022-12-28T09:16:31.863Z,100895.66
2022-12-28T09:19:01.396Z,100904.06
2022-12-28T09:21:30.640Z,100897.69
2022-12-28T09:23:57.594Z,100888.72
2022-12-28T09:26:26.691Z,100899.13
2022-12-28T09:28:55.474Z,100894.38
2022-12-28T09:31:24.532Z,100903.03
2022-12-28T09:36:50.596Z,100898.00
2022-12-28T09:39:19.794Z,100898.94
2022-12-28T09:41:52.323Z,100890.53
2022-12-28T09:44:26.936Z,100902.19
2022-12-28T09:47:05.715Z,100885.13
2022-12-28T09:49:42.346Z,100891.81
2022-12-28T09:52:14.528Z,100881.75
2022-12-28T09:54:41.680Z,100889.22
2022-12-28T09:57:14.897Z,100875.75
2022-12-28T09:59:41.805Z,100886.53
2022-12-28T10:02:19.167Z,100882.72
2022-12-28T10:04:49.527Z,100878.06
2022-12-28T10:07:16.461Z,100878.63
2022-12-28T10:09:42.919Z,100880.41
2022-12-28T10:12:18.468Z,100878.72
2022-12-28T10:14:46.542Z,100872.41
2022-12-28T10:17:14.813Z,100873.28
2022-12-28T10:19:45.019Z,100862.31
2022-12-28T10:22:16.657Z,100872.09
2022-12-28T10:24:44.514Z,100863.44
2022-12-28T10:27:36.971Z,100863.25
2022-12-28T10:30:15.605Z,100873.63
2022-12-28T10:32:50.911Z,100864.09
2022-12-28T10:35:36.190Z,100857.22
2022-12-28T10:38:07.330Z,100853.59
2022-12-28T10:40:39.388Z,100854.91
2022-12-28T10:43:10.797Z,100849.00
2022-12-28T10:45:41.541Z,100847.84
2022-12-28T10:48:14.476Z,100859.91
2022-12-28T10:50:54.148Z,100841.84
2022-12-28T10:53:28.157Z,100840.91
2022-12-28T10:56:05.880Z,100828.19
2022-12-28T10:58:34.191Z,100830.19
2022-12-28T11:01:05.763Z,100830.28
2022-12-28T11:03:37.248Z,100821.13
2022-12-28T11:06:10.532Z,100812.69
2022-12-28T11:08:39.451Z,100820.53
2022-12-28T11:11:06.507Z,100799.78
2022-12-28T11:13:33.728Z,100810.38
2022-12-28T11:16:00.483Z,100798.31
2022-12-28T11:18:30.842Z,100799.25
2022-12-28T11:21:01.443Z,100787.50
2022-12-28T11:23:31.494Z,100785.03
2022-12-28T11:25:58.683Z,100788.38
2022-12-28T11:28:25.065Z,100788.25
2022-12-28T11:30:51.857Z,100781.75
2022-12-28T11:33:39.472Z,100780.38
2022-12-28T11:36:12.308Z,100771.38
2022-12-28T11:38:41.573Z,100767.00
2022-12-28T11:41:33.888Z,100766.78
2022-12-28T11:44:05.308Z,100762.22
2022-12-28T11:46:31.608Z,100765.72
2022-12-28T11:49:22.757Z,100755.69
2022-12-28T11:52:14.894Z,100760.28
2022-12-28T11:54:56.100Z,100752.25
2022-12-28T11:57:44.607Z,100755.88
2022-12-28T12:00:21.867Z,100757.31
2022-12-28T12:03:03.699Z,100765.09
2022-12-28T12:05:39.123Z,100758.03
2022-12-28T12:08:11.667Z,100761.22
2022-12-28T12:10:39.902Z,100758.75
2022-12-28T12:13:24.925Z,100760.00
2022-12-28T12:15:58.151Z,100758.09
2022-12-28T12:18:27.183Z,100753.50
2022-12-28T12:21:13.307Z,100752.97
2022-12-28T12:23:48.638Z,100749.53
2022-12-28T12:26:27.653Z,100747.75
2022-12-28T12:29:00.376Z,100744.31
2022-12-28T12:31:41.304Z,100740.16
2022-12-28T12:34:19.778Z,100731.19
2022-12-28T12:37:01.363Z,100728.91
2022-12-28T12:39:35.130Z,100732.47
2022-12-28T12:42:13.408Z,100735.75
2022-12-28T12:44:57.661Z,100736.06
2022-12-28T12:47:45.870Z,100732.72
2022-12-28T12:50:46.918Z,100740.88
2022-12-28T12:53:25.953Z,100733.63
2022-12-28T12:56:01.251Z,100733.34
2022-12-28T12:58:51.569Z,100721.72
2022-12-28T13:01:42.242Z,100723.84
2022-12-28T13:04:23.822Z,100722.53
2022-12-28T13:06:57.226Z,100713.66
2022-12-28T13:09:27.479Z,100716.44
2022-12-28T13:11:54.291Z,100716.53
2022-12-28T13:14:23.112Z,100706.34
2022-12-28T13:16:55.380Z,100714.75
2022-12-28T13:19:25.559Z,100708.09
2022-12-28T13:21:52.885Z,100704.50
2022-12-28T13:24:27.082Z,100699.66
2022-12-28T13:26:55.254Z,100684.78
2022-12-28T13:29:26.604Z,100688.22
2022-12-28T13:31:53.089Z,100686.50
2022-12-28T13:34:23.908Z,100673.66
2022-12-28T13:36:58.268Z,100674.63
2022-12-28T13:39:26.778Z,100656.09
2022-12-28T13:42:18.025Z,100666.69
2022-12-28T13:44:55.624Z,100658.59
2022-12-28T13:47:37.047Z,100655.25
2022-12-28T13:50:09.513Z,100650.88
2022-12-28T13:52:55.266Z,100658.16
2022-12-28T13:55:36.093Z,100639.94
2022-12-28T13:58:12.362Z,100642.50
2022-12-28T14:00:42.303Z,100644.19
2022-12-28T14:03:11.595Z,100638.53
2022-12-28T14:05:43.397Z,100622.38
2022-12-28T14:08:09.819Z,100613.22
2022-12-28T14:10:36.868Z,100625.19
2022-12-28T14:13:04.753Z,100621.38
2022-12-28T14:15:40.868Z,100631.94
2022-12-28T14:18:08.390Z,100625.44
2022-12-28T14:20:50.135Z,100616.88
2022-12-28T14:23:22.226Z,100608.78
2022-12-28T14:25:49.386Z,100603.13
2022-12-28T14:28:26.390Z,100601.06
2022-12-28T14:30:55.248Z,100598.63
2022-12-28T14:33:27.655Z,100589.00
2022-12-28T14:35:59.173Z,100585.47
2022-12-28T14:38:31.744Z,100589.00
2022-12-28T14:41:00.572Z,100575.72
2022-12-28T14:43:32.720Z,100581.09
2022-12-28T14:46:37.056Z,100571.47
2022-12-28T14:49:28.447Z,100563.13
2022-12-28T14:51:56.196Z,100557.03
2022-12-28T14:54:26.367Z,100562.38
2022-12-28T14:57:05.591Z,100554.34
2022-12-28T14:59:38.056Z,100551.69
2022-12-28T15:02:05.073Z,100547.41
2022-12-28T15:04:39.279Z,100543.03
2022-12-28T15:07:07.740Z,100536.72
2022-12-28T15:09:34.739Z,100536.63
2022-12-28T15:12:20.459Z,100524.78
2022-12-28T15:14:46.920Z,100521.44
2022-12-28T15:17:13.850Z,100518.56
2022-12-28T15:19:43.129Z,100503.72
2022-12-28T15:22:09.499Z,100508.06
2022-12-28T15:24:35.970Z,100509.28
2022-12-28T15:27:03.414Z,100499.31
2022-12-28T15:32:16.573Z,100488.31
2022-12-28T15:34:42.949Z,100487.78
2022-12-28T15:37:09.367Z,100489.59
2022-12-28T15:39:36.091Z,100474.22
2022-12-28T15:42:02.565Z,100457.22
2022-12-28T15:44:28.982Z,100447.81
2022-12-28T15:46:55.473Z,100453.28
2022-12-28T15:49:21.979Z,100447.25
2022-12-28T15:51:48.627Z,100452.94
2022-12-28T15:54:15.076Z,100453.81
2022-12-28T15:56:41.940Z,100454.09
2022-12-28T15:59:14.166Z,100445.16
2022-12-28T16:01:43.745Z,100440.75
2022-12-28T16:04:10.389Z,100445.88
2022-12-28T16:06:43.675Z,100448.66
2022-12-28T16:09:11.842Z,100432.84
2022-12-28T16:11:38.310Z,100421.94
2022-12-28T16:14:06.793Z,100410.06
2022-12-28T16:16:38.999Z,100418.72
2022-12-28T16:19:06.855Z,100404.59
2022-12-28T16:21:33.670Z,100411.13
2022-12-28T16:24:00.738Z,100403.75
2022-12-28T16:26:28.224Z,100392.84
2022-12-28T16:28:55.113Z,100390.63
2022-12-28T16:31:32.780Z,100376.94
2022-12-28T16:34:02.235Z,100378.97
2022-12-28T16:36:29.152Z,100373.53
2022-12-28T16:38:56.207Z,100373.84
2022-12-28T16:41:23.641Z,100365.69
2022-12-28T16:43:50.492Z,100362.84
2022-12-28T16:46:17.210Z,100350.31
2022-12-28T16:48:43.678Z,100354.34
2022-12-28T16:51:11.689Z,100343.66
2022-12-28T16:53:38.251Z,100339.41
2022-12-28T16:56:05.569Z,100333.09
2022-12-28T16:58:32.725Z,100327.84
2022-12-28T17:01:09.189Z,100325.47
2022-12-28T17:03:36.946Z,100319.50
2022-12-28T17:06:04.398Z,100317.69
2022-12-28T17:08:31.028Z,100311.50
2022-12-28T17:10:57.436Z,100316.41
2022-12-28T17:13:23.871Z,100318.69
2022-12-28T17:15:50.540Z,100303.28
2022-12-28T17:18:17.330Z,100311.66
2022-12-28T17:20:44.763Z,100304.72
2022-12-28T17:23:11.320Z,100301.84
2022-12-28T17:25:37.674Z,100302.28
2022-12-28T17:28:04.307Z,100302.75
2022-12-28T17:30:31.321Z,100305.63
2022-12-28T17:32:57.696Z,100297.41
2022-12-28T17:35:24.287Z,100301.28
2022-12-28T17:37:50.932Z,100293.16
2022-12-28T17:40:17.801Z,100293.72
2022-12-28T17:42:44.295Z,100296.59
2022-12-28T17:45:11.918Z,100286.25
2022-12-28T17:47:38.680Z,100299.16
2022-12-28T17:50:06.259Z,100291.59
2022-12-28T17:52:32.656Z,100289.78
2022-12-28T17:54:59.144Z,100284.56
2022-12-28T17:57:25.577Z,100290.44
2022-12-28T17:59:51.947Z,100283.94
2022-12-28T18:02:18.576Z,100274.94
2022-12-28T18:04:45.086Z,100267.88
2022-12-28T18:07:11.610Z,100273.44
2022-12-28T18:09:37.975Z,100260.94
2022-12-28T18:12:04.561Z,100257.22
2022-12-28T18:14:30.945Z,100257.53
2022-12-28T18:16:57.359Z,100254.22
2022-12-28T18:19:23.790Z,100254.97
2022-12-28T18:21:50.487Z,100256.38
2022-12-28T18:24:20.565Z,100251.44
2022-12-28T18:26:47.475Z,100238.34
2022-12-28T18:29:13.978Z,100220.09
2022-12-28T18:31:40.373Z,100230.94
2022-12-28T18:34:07.340Z,100232.25
2022-12-28T18:36:34.092Z,100227.53
2022-12-28T18:39:02.614Z,100228.19
2022-12-28T18:41:34.055Z,100219.66
2022-12-28T18:44:02.574Z,100220.59
2022-12-28T18:46:29.162Z,100209.63
2022-12-28T18:48:56.477Z,100217.41
2022-12-28T18:51:22.854Z,100212.72
2022-12-28T18:53:50.658Z,100211.13
2022-12-28T18:56:21.597Z,100211.44
2022-12-28T18:58:56.412Z,100192.66
2022-12-28T19:02:04.614Z,100189.16
2022-12-28T19:04:12.895Z,100185.72
2022-12-28T19:06:39.605Z,100177.94
2022-12-28T19:09:08.154Z,100182.22
2022-12-28T19:11:36.258Z,100177.72
2022-12-28T19:14:05.489Z,100167.69
2022-12-28T19:16:32.484Z,100174.09
2022-12-28T19:18:59.896Z,100172.63
2022-12-28T19:21:31.642Z,100166.09
2022-12-28T19:24:03.511Z,100152.03
2022-12-28T19:26:31.746Z,100153.75
2022-12-28T19:28:58.720Z,100146.06
2022-12-28T19:31:25.553Z,100146.16
2022-12-28T19:33:52.092Z,100146.28
2022-12-28T19:36:18.501Z,100140.84
2022-12-28T19:38:44.878Z,100138.81
2022-12-28T19:41:16.076Z,100149.81
2022-12-28T19:43:43.497Z,100138.38
2022-12-28T19:46:15.943Z,100143.00
2022-12-28T19:48:42.894Z,100137.22
2022-12-28T19:51:10.119Z,100136.16
2022-12-28T19:53:37.380Z,100134.56
2022-12-28T19:56:06.775Z,100128.03
2022-12-28T19:58:34.352Z,100132.31
2022-12-28T20:01:05.609Z,100112.69
2022-12-28T20:03:32.249Z,100120.03
2022-12-28T20:06:06.122Z,100114.28
2022-12-28T20:08:33.525Z,100103.50
2022-12-28T20:10:59.911Z,100105.72
2022-12-28T20:13:26.308Z,100111.16
2022-12-28T20:15:55.164Z,100107.75
2022-12-28T20:18:21.721Z,100111.25
2022-12-28T20:21:17.845Z,100085.47
2022-12-28T20:23:37.679Z,100092.25
2022-12-28T20:26:04.351Z,100076.38
2022-12-28T20:28:31.606Z,100083.50
2022-12-28T20:31:02.719Z,100064.84
2022-12-28T20:33:31.271Z,100075.91
2022-12-28T20:36:18.017Z,100072.63
2022-12-28T20:38:44.911Z,100072.59
2022-12-28T20:41:32.934Z,100088.50
2022-12-28T20:44:00.606Z,100081.09
2022-12-28T20:46:27.729Z,100066.06
2022-12-28T20:48:54.779Z,100070.44
2022-12-28T20:51:21.146Z,100082.38
2022-12-28T20:53:47.544Z,100076.09
2022-12-28T20:56:13.904Z,100066.69
2022-12-28T20:58:40.356Z,100056.09
2022-12-28T21:01:09.556Z,100072.53
2022-12-28T21:03:36.489Z,100070.38
2022-12-28T21:06:04.126Z,100070.25
2022-12-28T21:08:31.313Z,100072.69
2022-12-28T21:10:58.058Z,100072.34
2022-12-28T21:13:24.701Z,100072.13
2022-12-28T21:15:52.365Z,100069.00
2022-12-28T21:18:19.626Z,100072.38
2022-12-28T21:20:51.636Z,100071.53
2022-12-28T21:23:18.309Z,100068.25
2022-12-28T21:25:45.039Z,100069.09
2022-12-28T21:28:11.651Z,100062.34
2022-12-28T21:30:38.569Z,100063.53
2022-12-28T21:33:05.583Z,100044.72
2022-12-28T21:35:34.320Z,100039.16
2022-12-28T21:38:01.621Z,100044.50
2022-12-28T21:40:28.041Z,100042.44
2022-12-28T21:42:54.425Z,100040.00
2022-12-28T21:45:20.891Z,100049.47
2022-12-28T21:47:47.333Z,100046.69
2022-12-28T21:50:15.860Z,100043.69
2022-12-28T21:52:42.217Z,100040.28
2022-12-28T21:55:27.511Z,100033.84
2022-12-28T21:57:54.420Z,100032.50
2022-12-28T22:00:39.667Z,100025.97
2022-12-28T22:03:32.151Z,100017.97
2022-12-28T22:06:06.452Z,100014.94
2022-12-28T22:08:52.195Z,100013.00
2022-12-28T22:11:37.940Z,100005.72
2022-12-28T22:14:05.709Z,100008.25
2022-12-28T22:16:34.253Z,100011.06
2022-12-28T22:19:03.388Z,100016.28
2022-12-28T22:21:30.782Z,100011.06
2022-12-28T22:23:57.215Z,100009.25
2022-12-28T22:26:23.639Z,100004.84
2022-12-28T22:28:50.194Z,100012.66
2022-12-28T22:31:16.670Z,100002.19
2022-12-28T22:33:43.306Z,100007.66
2022-12-28T22:36:18.121Z,100001.44
2022-12-28T22:38:44.634Z,99992.97
2022-12-28T22:41:11.044Z,100003.91
2022-12-28T22:43:37.476Z,99996.84
2022-12-28T22:46:09.607Z,99992.00
2022-12-28T22:48:36.187Z,99996.34
2022-12-28T22:51:04.860Z,100004.25
2022-12-28T22:53:31.971Z,99998.56
2022-12-28T22:56:00.310Z,99994.78
2022-12-28T22:58:27.155Z,99996.25
2022-12-28T23:01:12.499Z,99994.41
2022-12-28T23:03:40.552Z,99989.91
2022-12-28T23:06:08.506Z,99986.41
2022-12-28T23:08:35.330Z,99984.94
2022-12-28T23:11:04.119Z,99977.06
2022-12-28T23:13:33.308Z,99974.88
2022-12-28T23:16:02.616Z,99971.72
2022-12-28T23:18:48.064Z,99970.84
2022-12-28T23:21:38.464Z,99973.03
2022-12-28T23:24:25.296Z,99970.75
2022-12-28T23:27:10.082Z,99976.09
2022-12-28T23:29:36.434Z,99975.84
2022-12-28T23:32:02.946Z,99962.00
2022-12-28T23:34:29.319Z,99972.34
2022-12-28T23:36:55.715Z,99965.91
2022-12-28T23:39:23.391Z,99959.69
2022-12-28T23:41:51.085Z,99949.97
2022-12-28T23:44:19.840Z,99951.19
2022-12-28T23:46:47.468Z,99940.41
2022-12-28T23:49:15.139Z,99929.81
2022-12-28T23:51:42.790Z,99925.31
2022-12-28T23:54:10.095Z,99927.72
2022-12-28T23:56:36.574Z,99931.50
2022-12-28T23:59:04.466Z,99920.44
